Time;durP1;ratioP1;P1;durP2;ratioP2;P2;SDS_P1;SDS_P2;PMS_P1;PMS_P2;Temp;Humidity;BMP_temperature;BMP_pressure;BME280_temperature;BME280_humidity;BME280_pressure;Samples;Min_cycle;Max_cycle;Signal;HPM_P1;HPM_P2
2021/04/20 00:01:10;;;;;;;3.03;1.20;;;36.30;6.30;;;;;;5031362;28;20164;-61
2021/04/20 00:03:37;;;;;;;3.83;1.42;;;36.10;6.00;;;;;;5033359;28;20081;-63
2021/04/20 00:06:06;;;;;;;3.63;1.23;;;36.20;6.30;;;;;;5031136;28;20540;-62
2021/04/20 00:08:33;;;;;;;3.25;1.40;;;36.10;5.70;;;;;;5032378;28;20094;-63
2021/04/20 00:10:59;;;;;;;2.35;1.40;;;35.80;6.20;;;;;;5031321;28;20097;-64
2021/04/20 00:13:25;;;;;;;3.47;1.45;;;35.80;6.40;;;;;;5032494;28;20296;-63
2021/04/20 00:15:52;;;;;;;7.40;1.85;;;35.70;7.00;;;;;;5032543;28;20097;-63
2021/04/20 00:18:19;;;;;;;3.47;1.50;;;35.70;6.30;;;;;;5033706;28;20078;-63
2021/04/20 00:20:46;;;;;;;5.28;1.23;;;35.50;6.30;;;;;;5031765;28;20070;-64
2021/04/20 00:23:12;;;;;;;4.53;1.60;;;35.60;6.80;;;;;;5030474;28;20172;-63
2021/04/20 00:25:39;;;;;;;6.43;1.60;;;35.60;6.20;;;;;;5031668;28;20534;-63
2021/04/20 00:28:06;;;;;;;3.35;1.50;;;35.50;6.40;;;;;;5030475;28;20136;-63
2021/04/20 00:30:33;;;;;;;2.72;1.27;;;35.50;6.60;;;;;;5031800;28;20094;-64
2021/04/20 00:32:59;;;;;;;3.17;1.40;;;35.50;6.10;;;;;;5030093;28;20160;-63
2021/04/20 00:35:26;;;;;;;8.80;2.00;;;35.40;6.80;;;;;;5032382;28;20073;-63
2021/04/20 00:37:53;;;;;;;7.13;1.35;;;35.40;6.90;;;;;;5032303;28;20434;-63
2021/04/20 00:40:20;;;;;;;4.15;1.38;;;35.30;7.20;;;;;;5032063;28;20124;-62
2021/04/20 00:42:50;;;;;;;4.60;1.30;;;35.30;7.00;;;;;;5031686;28;20090;-63
2021/04/20 00:45:20;;;;;;;9.50;1.40;;;35.30;6.80;;;;;;5031887;28;20082;-63
2021/04/20 00:47:47;;;;;;;9.13;1.33;;;35.20;7.00;;;;;;5032633;28;20073;-62
2021/04/20 00:50:16;;;;;;;3.10;1.27;;;35.10;6.80;;;;;;5031320;28;20094;-63
2021/04/20 00:52:43;;;;;;;4.85;1.10;;;35.20;7.40;;;;;;5030254;28;20546;-63
2021/04/20 00:55:11;;;;;;;3.35;1.40;;;35.00;6.90;;;;;;5033629;28;20089;-64
2021/04/20 00:57:37;;;;;;;7.68;1.40;;;34.90;8.10;;;;;;5030895;28;20089;-64
2021/04/20 01:00:25;;;;;;;8.18;1.40;;;34.80;8.10;;;;;;5031305;28;20117;-64
2021/04/20 01:02:52;;;;;;;5.07;1.33;;;34.80;8.00;;;;;;5030918;28;20149;-64
2021/04/20 01:05:28;;;;;;;7.03;1.85;;;34.80;7.70;;;;;;5030106;28;20092;-62
2021/04/20 01:08:05;;;;;;;7.53;1.85;;;34.70;8.00;;;;;;5030182;28;20119;-63
2021/04/20 01:10:33;;;;;;;;;;;34.60;8.00;;;;;;5031057;28;20542;-62
2021/04/20 01:13:00;;;;;;;5.38;1.65;;;34.50;7.70;;;;;;5028314;28;20073;-63
2021/04/20 01:15:26;;;;;;;4.10;1.70;;;34.40;8.20;;;;;;5031071;28;20078;-64
2021/04/20 01:17:53;;;;;;;5.25;1.63;;;34.40;7.70;;;;;;5030409;28;20070;-65
2021/04/20 01:20:19;;;;;;;6.20;1.50;;;34.30;8.60;;;;;;5028288;28;20473;-63
2021/04/20 01:22:47;;;;;;;3.10;1.40;;;34.20;7.70;;;;;;5028691;28;20164;-65
2021/04/20 01:25:15;;;;;;;9.57;1.48;;;34.10;7.80;;;;;;5030050;28;20993;-63
2021/04/20 01:27:43;;;;;;;4.70;1.40;;;34.00;8.50;;;;;;5030505;28;20070;-65
2021/04/20 01:30:12;;;;;;;3.97;1.35;;;33.80;7.60;;;;;;5029358;28;20148;-66
2021/04/20 01:32:40;;;;;;;8.27;2.38;;;33.70;7.80;;;;;;5028555;28;20165;-64
2021/04/20 01:35:09;;;;;;;7.78;2.10;;;33.40;7.60;;;;;;5029665;28;20081;-64
2021/04/20 01:37:36;;;;;;;8.93;1.55;;;33.30;8.40;;;;;;5031725;28;20485;-64
2021/04/20 01:40:07;;;;;;;7.85;1.48;;;33.20;8.20;;;;;;5030372;28;20454;-65
2021/04/20 01:42:36;;;;;;;7.35;1.40;;;33.00;8.30;;;;;;5029007;28;20094;-67
2021/04/20 01:45:08;;;;;;;4.30;1.40;;;32.80;8.50;;;;;;5029560;28;20546;-65
2021/04/20 01:47:34;;;;;;;6.75;2.05;;;32.70;8.40;;;;;;5028792;28;20109;-65
2021/04/20 01:50:02;;;;;;;6.32;1.60;;;32.50;8.60;;;;;;5030009;28;20082;-65
2021/04/20 01:52:28;;;;;;;5.53;1.60;;;32.30;8.80;;;;;;5030217;28;20085;-64
2021/04/20 01:54:55;;;;;;;6.65;1.88;;;32.20;8.90;;;;;;5028599;28;20074;-65
2021/04/20 01:57:22;;;;;;;6.28;1.45;;;32.10;9.50;;;;;;5030085;28;20116;-64
2021/04/20 01:59:50;;;;;;;6.78;1.40;;;31.90;9.20;;;;;;5029343;28;20136;-66
2021/04/20 02:02:17;;;;;;;8.27;1.67;;;31.80;9.20;;;;;;5029968;28;20566;-65
2021/04/20 02:04:44;;;;;;;5.32;1.67;;;31.60;9.10;;;;;;5029018;28;20074;-65
2021/04/20 02:07:11;;;;;;;9.10;1.58;;;31.50;9.10;;;;;;5029698;28;20066;-65
2021/04/20 02:09:39;;;;;;;3.95;1.60;;;31.30;9.20;;;;;;5030920;28;20109;-65
2021/04/20 02:12:06;;;;;;;10.18;2.00;;;31.10;9.40;;;;;;5030830;28;20098;-66
2021/04/20 02:14:37;;;;;;;7.22;1.63;;;30.90;9.60;;;;;;5030255;28;20411;-62
2021/04/20 02:17:04;;;;;;;13.85;1.90;;;30.80;10.30;;;;;;5028354;28;20082;-63
2021/04/20 02:19:31;;;;;;;9.52;2.30;;;30.60;10.40;;;;;;5031014;28;20078;-62
2021/04/20 02:22:00;;;;;;;9.43;2.08;;;30.40;10.70;;;;;;5030059;28;20078;-63
2021/04/20 02:24:26;;;;;;;13.38;2.63;;;30.30;10.90;;;;;;5031374;28;20523;-64
2021/04/20 02:26:53;;;;;;;6.90;2.15;;;30.10;11.20;;;;;;5031137;28;20081;-64
2021/04/20 02:29:19;;;;;;;6.65;2.30;;;30.00;11.40;;;;;;5031332;28;20069;-62
2021/04/20 02:31:46;;;;;;;8.15;2.58;;;29.90;11.50;;;;;;5031875;28;20090;-62
2021/04/20 02:34:13;;;;;;;10.88;2.25;;;29.70;11.50;;;;;;5031103;28;20077;-64
2021/04/20 02:36:41;;;;;;;20.55;3.75;;;29.50;11.60;;;;;;5031574;28;20171;-62
2021/04/20 02:39:09;;;;;;;16.40;3.67;;;29.50;12.10;;;;;;5031265;28;20078;-63
2021/04/20 02:41:40;;;;;;;25.48;3.30;;;29.40;12.20;;;;;;5032073;28;20065;-62
2021/04/20 02:44:09;;;;;;;20.10;3.08;;;29.20;12.40;;;;;;5029982;28;20093;-62
2021/04/20 02:46:40;;;;;;;10.82;3.13;;;29.00;12.40;;;;;;5031453;28;20435;-63
2021/04/20 02:49:08;;;;;;;22.98;3.88;;;28.90;12.40;;;;;;5046877;28;20074;-62
2021/04/20 02:51:36;;;;;;;14.43;3.85;;;28.80;12.50;;;;;;5032074;28;20535;-63
2021/04/20 02:54:03;;;;;;;23.88;4.35;;;28.70;12.80;;;;;;5032061;28;20077;-61
2021/04/20 02:56:31;;;;;;;23.08;4.22;;;28.60;13.00;;;;;;5027457;28;20083;-60
2021/04/20 02:59:03;;;;;;;18.25;4.45;;;28.50;13.20;;;;;;5030412;28;20070;-62
2021/04/20 03:01:32;;;;;;;16.20;3.70;;;28.40;13.20;;;;;;5030779;28;20090;-61
2021/04/20 03:03:59;;;;;;;16.00;3.72;;;28.30;12.70;;;;;;5030701;28;20085;-62
2021/04/20 03:06:26;;;;;;;17.17;3.10;;;28.20;13.10;;;;;;5031079;28;20153;-61
2021/04/20 03:08:52;;;;;;;13.32;3.03;;;28.10;12.80;;;;;;5029988;28;20074;-62
2021/04/20 03:11:34;;;;;;;16.00;3.03;;;28.00;12.50;;;;;;5030228;28;20125;-62
2021/04/20 03:14:08;;;;;;;14.60;2.80;;;28.00;13.30;;;;;;5029950;28;20078;-62
2021/04/20 03:16:35;;;;;;;17.30;2.75;;;27.90;13.50;;;;;;5031436;28;20070;-62
2021/04/20 03:19:04;;;;;;;19.38;3.20;;;27.70;13.50;;;;;;5030877;28;20074;-63
2021/04/20 03:21:32;;;;;;;26.05;3.67;;;27.60;13.50;;;;;;5030919;28;20078;-64
2021/04/20 03:24:02;;;;;;;44.78;6.13;;;27.60;13.40;;;;;;5029063;28;20178;-62
2021/04/20 03:26:40;;;;;;;32.17;6.15;;;27.50;12.30;;;;;;5032250;28;20153;-61
2021/04/20 03:29:09;;;;;;;52.33;7.40;;;27.60;12.40;;;;;;5033934;28;20110;-62
2021/04/20 03:31:38;;;;;;;52.65;7.65;;;27.60;11.80;;;;;;5035225;28;20133;-63
2021/04/20 03:34:09;;;;;;;35.50;7.18;;;27.70;11.40;;;;;;5034006;28;20533;-62
2021/04/20 03:36:41;;;;;;;43.97;6.75;;;27.90;11.40;;;;;;5034972;28;20233;-61
2021/04/20 03:39:12;;;;;;;37.08;5.80;;;28.00;11.50;;;;;;5033589;28;20157;-62
2021/04/20 03:42:07;;;;;;;28.42;5.38;;;28.10;11.50;;;;;;5033888;28;20084;-62
2021/04/20 03:44:44;;;;;;;32.05;4.70;;;28.30;11.60;;;;;;5032785;28;20081;-61
2021/04/20 03:47:47;;;;;;;20.52;4.38;;;28.30;11.80;;;;;;5033474;28;20128;-62
2021/04/20 03:50:25;;;;;;;21.27;3.30;;;28.40;11.70;;;;;;5033914;28;20074;-63
2021/04/20 03:53:05;;;;;;;24.92;4.13;;;28.50;11.80;;;;;;5035094;28;20066;-63
2021/04/20 03:55:35;;;;;;;26.85;3.85;;;28.60;11.50;;;;;;5034300;28;20074;-64
2021/04/20 03:58:03;;;;;;;17.25;3.13;;;28.70;11.30;;;;;;5034882;28;20110;-62
2021/04/20 04:00:31;;;;;;;13.18;2.70;;;28.70;11.50;;;;;;5033083;28;20649;-62
2021/04/20 04:02:58;;;;;;;18.45;3.20;;;28.80;11.30;;;;;;5033654;28;20069;-62
2021/04/20 04:05:27;;;;;;;21.35;3.70;;;28.80;11.20;;;;;;5034277;28;20434;-62
2021/04/20 04:08:00;;;;;;;14.32;3.35;;;28.80;11.00;;;;;;5033143;28;20542;-65
2021/04/20 04:10:30;;;;;;;17.08;2.53;;;28.80;11.00;;;;;;5033093;28;20112;-64
2021/04/20 04:13:04;;;;;;;14.38;2.88;;;28.80;11.00;;;;;;5031747;28;20074;-62
2021/04/20 04:15:32;;;;;;;20.25;3.40;;;28.80;11.10;;;;;;5033554;28;20161;-64
2021/04/20 04:18:04;;;;;;;14.40;3.00;;;28.70;11.00;;;;;;5033384;28;20101;-61
2021/04/20 04:20:31;;;;;;;27.17;4.47;;;28.70;11.00;;;;;;5032961;28;20074;-62
2021/04/20 04:23:37;;;;;;;15.25;2.80;;;28.70;11.40;;;;;;5031617;28;20519;-62
2021/04/20 04:26:16;;;;;;;14.10;3.53;;;28.60;11.90;;;;;;5034525;28;20100;-64
2021/04/20 04:28:50;;;;;;;18.13;3.50;;;28.50;11.30;;;;;;5032092;28;20074;-62
2021/04/20 04:31:18;;;;;;;16.73;3.17;;;28.40;11.40;;;;;;5031090;28;20097;-63
2021/04/20 04:33:46;;;;;;;13.85;3.00;;;28.40;11.40;;;;;;5033246;28;20093;-62
2021/04/20 04:36:14;;;;;;;16.98;3.63;;;28.30;11.40;;;;;;5032580;28;21439;-64
2021/04/20 04:38:41;;;;;;;18.52;3.20;;;28.20;11.70;;;;;;5029991;28;20101;-62
2021/04/20 04:41:08;;;;;;;11.55;3.38;;;28.20;11.70;;;;;;5032348;28;20078;-63
2021/04/20 04:43:41;;;;;;;22.75;3.47;;;28.00;11.80;;;;;;5031400;28;20070;-63
2021/04/20 04:46:08;;;;;;;17.90;4.03;;;28.00;12.40;;;;;;5032552;28;20161;-63
2021/04/20 04:48:36;;;;;;;15.07;3.85;;;27.80;12.20;;;;;;5031744;28;20117;-61
2021/04/20 04:51:04;;;;;;;26.55;4.22;;;27.70;12.40;;;;;;5016560;28;20550;-63
2021/04/20 04:53:36;;;;;;;19.35;4.22;;;27.60;13.00;;;;;;5031938;28;20066;-64
2021/04/20 04:56:05;;;;;;;17.70;3.45;;;27.50;13.20;;;;;;5031916;28;20553;-62
2021/04/20 04:58:35;;;;;;;20.23;3.72;;;27.30;13.70;;;;;;5031536;28;20109;-63
2021/04/20 05:01:03;;;;;;;16.33;3.45;;;27.30;13.80;;;;;;5030221;28;20197;-63
2021/04/20 05:03:30;;;;;;;19.05;3.95;;;27.10;13.70;;;;;;5031735;28;20109;-64
2021/04/20 05:05:59;;;;;;;20.65;3.38;;;27.00;13.70;;;;;;5030090;28;20074;-64
2021/04/20 05:08:27;;;;;;;15.57;3.75;;;26.70;13.90;;;;;;5031368;28;20074;-62
2021/04/20 05:11:00;;;;;;;22.52;3.65;;;26.60;13.80;;;;;;5030762;28;20097;-63
2021/04/20 05:13:26;;;;;;;21.55;4.57;;;26.60;13.90;;;;;;5032179;28;20535;-64
2021/04/20 05:15:54;;;;;;;14.73;3.33;;;26.40;13.80;;;;;;5030367;28;20461;-63
2021/04/20 05:18:23;;;;;;;21.95;4.20;;;26.40;13.60;;;;;;5031351;28;20109;-65
2021/04/20 05:20:50;;;;;;;13.85;3.72;;;26.40;13.80;;;;;;5031461;28;20123;-63
2021/04/20 05:23:18;;;;;;;26.77;3.45;;;26.30;13.90;;;;;;5031840;28;20455;-63
2021/04/20 05:25:45;;;;;;;24.75;4.75;;;26.30;14.30;;;;;;5029991;28;20519;-64
2021/04/20 05:28:12;;;;;;;17.60;4.07;;;26.20;14.20;;;;;;5031202;28;20066;-63
2021/04/20 05:30:38;;;;;;;23.95;3.78;;;26.20;14.40;;;;;;5031251;28;20176;-62
2021/04/20 05:33:05;;;;;;;22.05;3.80;;;26.10;14.80;;;;;;5031191;28;20123;-63
2021/04/20 05:35:32;;;;;;;12.93;3.47;;;26.00;14.70;;;;;;5030648;28;20091;-63
2021/04/20 05:37:58;;;;;;;14.75;3.90;;;25.90;14.40;;;;;;5029627;28;20074;-65
2021/04/20 05:40:27;;;;;;;19.63;3.67;;;25.80;14.50;;;;;;5030286;28;20433;-63
2021/04/20 05:42:56;;;;;;;19.52;4.43;;;25.80;14.20;;;;;;5029281;28;20078;-64
2021/04/20 05:45:24;;;;;;;19.50;4.63;;;25.70;13.30;;;;;;5030535;28;20121;-62
2021/04/20 05:47:53;;;;;;;18.75;3.70;;;25.70;13.30;;;;;;5028738;28;20110;-65
2021/04/20 05:50:30;;;;;;;8.95;2.50;;;25.80;12.60;;;;;;5030587;28;20104;-64
2021/04/20 05:53:00;;;;;;;17.77;3.00;;;25.80;12.40;;;;;;5031563;28;20074;-63
2021/04/20 05:55:28;;;;;;;14.50;2.40;;;25.80;12.10;;;;;;5030098;28;20415;-62
2021/04/20 05:57:55;;;;;;;13.93;3.00;;;25.80;12.20;;;;;;5030809;28;20106;-63
2021/04/20 06:00:24;;;;;;;8.05;2.28;;;25.90;11.90;;;;;;5029703;28;20725;-64
2021/04/20 06:02:53;;;;;;;15.05;2.58;;;25.90;12.00;;;;;;5031368;28;20070;-65
2021/04/20 06:05:25;;;;;;;16.58;2.58;;;25.90;12.00;;;;;;5030928;28;20082;-63
2021/04/20 06:07:57;;;;;;;9.10;2.30;;;26.00;11.80;;;;;;5030047;28;20074;-63
2021/04/20 06:10:25;;;;;;;12.05;2.25;;;26.00;11.60;;;;;;5030129;28;20101;-64
2021/04/20 06:12:52;;;;;;;12.32;2.85;;;26.10;11.40;;;;;;5030045;28;20085;-63
2021/04/20 06:15:21;;;;;;;10.23;1.90;;;26.10;11.30;;;;;;5030641;28;20105;-64
2021/04/20 06:17:48;;;;;;;9.82;2.80;;;26.10;11.30;;;;;;5028508;28;20074;-63
2021/04/20 06:20:17;;;;;;;14.13;2.63;;;26.00;11.10;;;;;;5029577;28;20152;-64
2021/04/20 06:22:47;;;;;;;12.93;2.95;;;26.10;10.90;;;;;;5030705;28;20073;-66
2021/04/20 06:25:15;;;;;;;16.05;3.35;;;26.00;11.10;;;;;;5027805;28;20202;-64
2021/04/20 06:27:43;;;;;;;18.25;2.80;;;26.00;11.20;;;;;;5030090;28;20538;-62
2021/04/20 06:30:11;;;;;;;16.75;2.33;;;26.00;11.10;;;;;;5028297;28;20100;-63
2021/04/20 06:32:42;;;;;;;10.00;2.60;;;25.90;10.90;;;;;;5029106;28;20080;-62
2021/04/20 06:35:12;;;;;;;15.50;2.40;;;25.90;10.90;;;;;;5028730;28;20148;-63
2021/04/20 06:37:40;;;;;;;16.58;2.95;;;25.90;11.00;;;;;;5028093;28;20082;-63
2021/04/20 06:40:19;;;;;;;10.25;2.85;;;25.90;10.90;;;;;;5029496;28;20085;-62
2021/04/20 06:43:11;;;;;;;21.80;3.50;;;25.90;10.50;;;;;;5029914;28;20162;-63
2021/04/20 06:45:54;;;;;;;11.23;3.00;;;25.90;10.50;;;;;;5030097;28;20078;-62
2021/04/20 06:48:35;;;;;;;15.95;2.85;;;25.90;10.20;;;;;;5029841;28;20566;-61
2021/04/20 06:51:06;;;;;;;19.67;2.90;;;25.90;10.30;;;;;;5029173;28;20147;-62
2021/04/20 06:53:38;;;;;;;26.05;3.00;;;25.90;10.10;;;;;;5029750;28;20551;-62
2021/04/20 06:56:22;;;;;;;8.40;3.00;;;25.90;10.40;;;;;;5029364;28;20553;-62
2021/04/20 06:59:09;;;;;;;17.95;2.67;;;25.90;10.20;;;;;;5029056;28;20081;-61
2021/04/20 07:02:13;;;;;;;9.63;2.00;;;25.90;10.00;;;;;;5030241;28;20082;-62
2021/04/20 07:04:50;;;;;;;8.23;2.33;;;25.90;9.80;;;;;;5035399;28;20495;-62
2021/04/20 07:07:38;;;;;;;10.98;3.03;;;25.90;9.80;;;;;;5034997;28;20527;-60
2021/04/20 07:10:19;;;;;;;13.05;2.55;;;25.80;9.80;;;;;;5034558;28;20074;-62
2021/04/20 07:12:49;;;;;;;9.35;2.90;;;25.70;9.70;;;;;;5033425;28;20097;-62
2021/04/20 07:15:20;;;;;;;10.18;2.70;;;25.80;9.70;;;;;;5034738;28;20507;-61
2021/04/20 07:18:05;;;;;;;13.10;2.67;;;25.70;9.80;;;;;;5033355;28;20526;-62
2021/04/20 07:20:38;;;;;;;13.02;2.38;;;25.70;10.10;;;;;;5033070;28;20104;-60
2021/04/20 07:23:41;;;;;;;8.70;3.03;;;25.70;10.30;;;;;;5033253;28;20070;-60
2021/04/20 07:26:23;;;;;;;14.63;2.53;;;25.60;10.50;;;;;;5032341;28;20078;-61
2021/04/20 07:29:20;;;;;;;6.07;2.28;;;25.50;10.60;;;;;;5034936;28;20070;-62
2021/04/20 07:32:06;;;;;;;15.68;3.08;;;25.40;10.80;;;;;;5033740;28;20102;-63
2021/04/20 07:35:06;;;;;;;9.00;2.20;;;25.40;11.00;;;;;;5032596;28;20074;-62
2021/04/20 07:37:50;;;;;;;8.20;2.30;;;25.30;11.30;;;;;;5032609;28;20168;-62
2021/04/20 07:40:46;;;;;;;13.90;2.97;;;25.10;11.60;;;;;;5031533;28;20078;-61
2021/04/20 07:43:24;;;;;;;7.90;2.35;;;25.00;11.70;;;;;;5032489;28;20084;-62
2021/04/20 07:46:14;;;;;;;10.70;3.08;;;24.90;11.70;;;;;;5032283;28;20101;-63
2021/04/20 07:48:46;;;;;;;12.60;2.70;;;24.70;12.20;;;;;;5033053;28;20135;-61
2021/04/20 07:51:28;;;;;;;12.55;2.55;;;24.60;12.50;;;;;;5033560;28;20097;-64
2021/04/20 07:54:25;;;;;;;8.77;2.75;;;24.50;12.70;;;;;;5032468;28;20076;-61
2021/04/20 07:57:11;;;;;;;11.88;3.13;;;24.40;13.20;;;;;;5034663;28;20091;-62
2021/04/20 07:59:57;;;;;;;15.82;3.55;;;24.20;13.50;;;;;;5034240;28;20139;-62
2021/04/20 08:02:39;;;;;;;22.08;3.90;;;24.10;13.70;;;;;;5031938;28;20124;-64
2021/04/20 08:05:17;;;;;;;12.07;3.28;;;24.10;14.40;;;;;;5031513;28;20123;-61
2021/04/20 08:07:56;;;;;;;14.55;2.95;;;24.00;14.60;;;;;;5031981;28;20139;-62
2021/04/20 08:10:38;;;;;;;14.98;3.60;;;24.00;14.30;;;;;;5032527;28;20085;-63
2021/04/20 08:13:16;;;;;;;19.70;3.15;;;23.90;14.40;;;;;;5031820;28;20077;-63
2021/04/20 08:16:07;;;;;;;12.25;3.50;;;23.70;14.30;;;;;;5031252;28;20076;-63
2021/04/20 08:18:42;;;;;;;16.60;3.83;;;23.70;14.70;;;;;;5034145;28;20074;-64
2021/04/20 08:21:11;;;;;;;15.05;3.55;;;23.60;14.90;;;;;;5032407;28;20077;-64
2021/04/20 08:23:45;;;;;;;20.25;4.05;;;23.50;15.00;;;;;;5030961;28;20074;-64
2021/04/20 08:26:19;;;;;;;19.85;3.70;;;23.40;15.20;;;;;;5034434;28;20081;-64
2021/04/20 08:28:55;;;;;;;16.90;3.53;;;23.30;15.40;;;;;;5032911;28;20412;-65
2021/04/20 08:32:00;;;;;;;15.50;4.10;;;23.30;15.60;;;;;;5032229;28;20106;-64
2021/04/20 08:34:40;;;;;;;30.33;4.78;;;23.20;16.30;;;;;;5032602;28;20113;-65
2021/04/20 08:37:14;;;;;;;22.42;4.47;;;23.20;16.20;;;;;;5031356;28;20082;-63
2021/04/20 08:40:08;;;;;;;22.23;5.18;;;23.10;16.40;;;;;;5030520;28;20082;-64
2021/04/20 08:42:47;;;;;;;20.67;5.05;;;23.00;16.00;;;;;;5031241;28;20156;-63
2021/04/20 08:45:23;;;;;;;28.55;5.60;;;22.90;16.20;;;;;;5033270;28;20070;-64
2021/04/20 08:47:55;;;;;;;25.77;5.13;;;22.90;16.40;;;;;;5033473;28;20066;-63
2021/04/20 08:50:25;;;;;;;18.63;3.88;;;22.90;16.60;;;;;;5031905;28;20423;-64
2021/04/20 08:53:22;;;;;;;17.02;4.38;;;22.80;16.50;;;;;;5032899;28;20400;-63
2021/04/20 08:56:23;;;;;;;14.98;3.60;;;22.80;17.20;;;;;;5031549;28;20594;-65
2021/04/20 08:59:17;;;;;;;13.52;3.28;;;22.70;17.80;;;;;;5031621;28;20069;-64
2021/04/20 09:02:14;;;;;;;19.52;4.15;;;22.60;18.00;;;;;;5031459;28;20100;-63
2021/04/20 09:04:59;;;;;;;14.10;3.70;;;22.60;17.90;;;;;;5028902;28;20530;-62
2021/04/20 09:08:09;;;;;;;12.57;3.40;;;22.60;18.20;;;;;;5029112;28;20147;-64
2021/04/20 09:10:56;;;;;;;21.77;3.60;;;22.50;18.20;;;;;;5047007;28;20170;-62
2021/04/20 09:13:27;;;;;;;18.35;2.90;;;22.50;18.60;;;;;;5031477;28;20136;-62
2021/04/20 09:16:00;;;;;;;16.08;3.00;;;22.40;18.80;;;;;;5031046;28;21453;-63
2021/04/20 09:18:41;;;;;;;16.20;2.83;;;22.30;18.90;;;;;;5031355;28;20078;-63
2021/04/20 09:21:32;;;;;;;17.65;3.50;;;22.30;18.70;;;;;;5031815;28;20077;-64
2021/04/20 09:24:07;;;;;;;13.35;3.45;;;22.30;18.70;;;;;;5031129;28;20446;-63
2021/04/20 09:26:54;;;;;;;15.55;3.00;;;22.30;18.70;;;;;;5030762;28;20077;-63
2021/04/20 09:29:35;;;;;;;13.77;2.60;;;22.10;18.60;;;;;;5030308;28;20437;-62
2021/04/20 09:32:07;;;;;;;11.32;3.00;;;22.00;18.90;;;;;;5030167;28;20093;-62
2021/04/20 09:34:42;;;;;;;15.05;3.08;;;22.00;19.20;;;;;;5030549;28;20531;-64
2021/04/20 09:37:10;;;;;;;11.80;2.63;;;22.00;19.10;;;;;;5031514;28;20176;-63
2021/04/20 09:39:39;;;;;;;19.75;2.97;;;22.00;19.50;;;;;;5030117;28;20535;-63
2021/04/20 09:42:08;;;;;;;21.05;3.63;;;22.00;20.10;;;;;;5030759;28;20074;-62
2021/04/20 09:45:10;;;;;;;16.63;3.40;;;22.00;20.00;;;;;;5029625;28;20082;-63
2021/04/20 09:48:31;;;;;;;11.30;3.30;;;21.80;20.30;;;;;;5030919;28;20069;-62
2021/04/20 09:51:11;;;;;;;14.75;3.15;;;21.70;20.40;;;;;;5030774;28;20108;-63
2021/04/20 09:53:41;;;;;;;14.50;3.15;;;21.70;20.30;;;;;;5030963;28;20074;-63
2021/04/20 09:56:29;;;;;;;12.65;2.63;;;21.70;20.80;;;;;;5029514;28;20097;-63
2021/04/20 09:58:55;;;;;;;13.00;2.97;;;21.60;20.60;;;;;;5030642;28;20124;-64
2021/04/20 10:01:46;;;;;;;12.48;2.50;;;21.60;20.60;;;;;;5031033;28;20147;-63
2021/04/20 10:04:25;;;;;;;13.90;2.53;;;21.50;20.40;;;;;;5029630;28;20650;-63
2021/04/20 10:07:19;;;;;;;8.35;2.70;;;21.40;20.20;;;;;;5030489;28;20073;-63
2021/04/20 10:10:06;;;;;;;15.43;3.30;;;21.30;20.20;;;;;;5027321;28;20169;-63
2021/04/20 10:12:54;;;;;;;15.20;3.70;;;21.20;20.60;;;;;;5028936;28;20700;-63
2021/04/20 10:15:31;;;;;;;13.13;2.92;;;21.20;20.50;;;;;;5029236;28;20081;-63
2021/04/20 10:18:20;;;;;;;11.20;2.90;;;21.20;20.70;;;;;;5029967;28;20096;-63
2021/04/20 10:21:01;;;;;;;12.82;2.42;;;21.30;20.50;;;;;;5030251;28;20139;-64
2021/04/20 10:24:02;;;;;;;20.60;3.05;;;21.30;20.80;;;;;;5030107;28;20108;-63
2021/04/20 10:26:58;;;;;;;10.23;2.95;;;21.10;20.30;;;;;;5017927;28;20096;-63
2021/04/20 10:29:35;;;;;;;15.93;2.65;;;21.10;20.50;;;;;;5029275;28;20120;-63
2021/04/20 10:32:13;;;;;;;13.85;2.85;;;21.00;20.30;;;;;;5030907;28;20096;-63
2021/04/20 10:34:51;;;;;;;14.75;2.45;;;21.00;21.00;;;;;;5030646;28;20151;-63
2021/04/20 10:37:40;;;;;;;12.77;2.92;;;21.00;20.60;;;;;;5032353;28;20532;-62
2021/04/20 10:40:10;;;;;;;11.80;3.28;;;21.00;21.30;;;;;;5034995;28;20074;-62
2021/04/20 10:42:38;;;;;;;12.45;3.20;;;20.90;21.30;;;;;;5035247;28;20557;-63
2021/04/20 10:45:07;;;;;;;11.48;3.20;;;20.80;21.20;;;;;;5034367;28;20074;-63
2021/04/20 10:47:37;;;;;;;14.65;3.17;;;20.80;21.10;;;;;;5034263;28;20077;-63
2021/04/20 10:50:05;;;;;;;12.90;3.05;;;20.80;20.90;;;;;;5034923;28;20610;-63
2021/04/20 10:52:35;;;;;;;17.67;3.38;;;20.60;20.70;;;;;;5033277;28;20101;-63
2021/04/20 10:55:11;;;;;;;11.98;2.78;;;20.70;21.00;;;;;;5033652;28;20421;-63
2021/04/20 10:57:47;;;;;;;15.68;3.35;;;20.60;20.90;;;;;;5032660;28;21246;-63
2021/04/20 11:00:19;;;;;;;22.00;3.93;;;20.60;20.90;;;;;;5033083;28;20113;-62
2021/04/20 11:02:58;;;;;;;13.43;3.40;;;20.50;21.00;;;;;;5034034;28;20066;-62
2021/04/20 11:05:27;;;;;;;21.33;3.88;;;20.60;21.20;;;;;;5034722;28;20089;-63
2021/04/20 11:07:55;;;;;;;21.45;4.45;;;20.50;21.50;;;;;;5034911;28;20070;-63
2021/04/20 11:10:27;;;;;;;18.67;4.07;;;20.40;22.10;;;;;;5033618;28;20078;-64
2021/04/20 11:12:55;;;;;;;20.58;4.88;;;20.40;21.90;;;;;;5033731;28;20120;-63
2021/04/20 11:15:27;;;;;;;23.10;4.25;;;20.40;22.20;;;;;;5032869;28;20074;-63
2021/04/20 11:18:14;;;;;;;28.05;5.43;;;20.30;21.90;;;;;;5032824;28;20491;-63
2021/04/20 11:20:44;;;;;;;;;;;20.20;21.90;;;;;;5031872;28;20158;-63
2021/04/20 11:23:33;;;;;;;15.20;4.82;;;20.20;21.90;;;;;;5032212;28;20056;-63
2021/04/20 11:26:12;;;;;;;20.55;5.68;;;20.20;21.50;;;;;;5033879;28;20527;-63
2021/04/20 11:28:59;;;;;;;26.92;5.95;;;20.20;21.50;;;;;;5032816;28;20113;-61
2021/04/20 11:31:36;;;;;;;21.55;5.78;;;20.10;22.40;;;;;;5032679;28;20098;-63
2021/04/20 11:34:08;;;;;;;25.38;6.65;;;20.00;22.00;;;;;;5032854;28;20085;-63
2021/04/20 11:36:56;;;;;;;24.20;5.63;;;20.00;21.80;;;;;;5032652;28;20519;-62
2021/04/20 11:39:48;;;;;;;30.85;7.22;;;20.00;21.40;;;;;;5032169;28;20085;-62
2021/04/20 11:42:27;;;;;;;33.55;7.50;;;19.90;21.80;;;;;;5032704;28;20082;-63
2021/04/20 11:45:03;;;;;;;31.55;7.68;;;19.80;22.50;;;;;;5033843;28;20074;-62
2021/04/20 11:47:30;;;;;;;30.80;7.82;;;19.80;21.80;;;;;;5032005;28;20074;-62
2021/04/20 11:50:16;;;;;;;43.65;7.85;;;19.70;22.20;;;;;;5033273;28;20082;-64
2021/04/20 11:52:44;;;;;;;42.53;8.93;;;19.70;22.80;;;;;;5033090;28;20473;-64
2021/04/20 11:55:14;;;;;;;47.83;10.38;;;19.60;23.60;;;;;;5031863;28;20078;-63
2021/04/20 11:57:42;;;;;;;46.20;10.23;;;19.70;22.50;;;;;;5032157;28;20435;-64
2021/04/20 12:00:11;;;;;;;50.33;11.85;;;19.70;22.20;;;;;;5032064;28;20629;-63
2021/04/20 12:02:38;;;;;;;55.17;12.55;;;19.70;22.60;;;;;;5032727;28;20110;-63
2021/04/20 12:05:10;;;;;;;48.58;12.68;;;19.60;23.20;;;;;;5032514;28;20066;-63
2021/04/20 12:07:39;;;;;;;52.95;13.40;;;19.60;23.00;;;;;;5030636;28;20082;-63
2021/04/20 12:10:07;;;;;;;56.30;15.27;;;19.60;23.00;;;;;;5032586;28;20542;-63
2021/04/20 12:12:35;;;;;;;54.75;13.73;;;19.50;23.00;;;;;;5032122;28;20573;-63
2021/04/20 12:15:05;;;;;;;46.35;13.95;;;19.40;23.10;;;;;;5031294;28;20077;-63
2021/04/20 12:17:38;;;;;;;64.00;14.43;;;19.40;23.10;;;;;;5033234;28;20527;-63
2021/04/20 12:20:31;;;;;;;46.40;13.13;;;19.40;23.20;;;;;;5031408;28;20073;-63
2021/04/20 12:22:59;;;;;;;48.10;14.27;;;19.40;23.80;;;;;;5030634;28;20171;-63
2021/04/20 12:25:27;;;;;;;44.30;13.15;;;19.40;23.70;;;;;;5029632;28;20074;-63
2021/04/20 12:27:58;;;;;;;46.45;14.27;;;19.40;24.00;;;;;;5031117;28;20097;-64
2021/04/20 12:30:26;;;;;;;42.75;14.10;;;19.30;24.20;;;;;;5032456;28;20070;-63
2021/04/20 12:32:53;;;;;;;48.20;14.63;;;19.30;24.30;;;;;;5033247;28;20114;-63
2021/04/20 12:35:30;;;;;;;56.85;13.80;;;19.30;24.20;;;;;;5031742;28;20074;-62
2021/04/20 12:38:00;;;;;;;49.83;14.25;;;19.20;24.60;;;;;;5029693;28;20081;-62
2021/04/20 12:40:27;;;;;;;43.08;14.00;;;19.20;24.50;;;;;;5031638;28;20085;-63
2021/04/20 12:43:05;;;;;;;50.25;13.32;;;19.30;24.00;;;;;;5031462;28;20074;-63
2021/04/20 12:45:37;;;;;;;49.03;14.32;;;19.30;24.20;;;;;;5031155;28;20553;-63
2021/04/20 12:48:06;;;;;;;46.13;13.07;;;19.30;24.90;;;;;;5032343;28;20070;-63
2021/04/20 12:50:42;;;;;;;53.15;14.90;;;19.30;23.90;;;;;;5031046;28;20490;-63
2021/04/20 12:53:10;;;;;;;47.75;14.20;;;19.40;24.10;;;;;;5031620;28;20173;-63
2021/04/20 12:55:41;;;;;;;45.80;14.00;;;19.30;23.70;;;;;;5030638;28;20078;-63
2021/04/20 12:58:11;;;;;;;60.88;14.93;;;19.20;23.50;;;;;;5031746;28;20100;-63
2021/04/20 13:00:38;;;;;;;50.67;14.50;;;19.20;23.70;;;;;;5030232;28;20121;-63
2021/04/20 13:03:06;;;;;;;51.10;15.38;;;19.20;23.80;;;;;;5029722;28;20074;-63
2021/04/20 13:05:36;;;;;;;56.75;15.65;;;19.20;23.70;;;;;;5032782;28;20591;-64
2021/04/20 13:08:13;;;;;;;56.20;13.45;;;19.10;23.90;;;;;;5032267;28;20073;-62
2021/04/20 13:10:42;;;;;;;64.07;15.30;;;19.20;23.70;;;;;;5031216;28;20195;-63
2021/04/20 13:13:13;;;;;;;52.72;12.55;;;19.20;24.10;;;;;;5030391;28;20136;-63
2021/04/20 13:15:42;;;;;;;57.08;13.70;;;19.30;24.10;;;;;;5031610;28;20542;-64